createdAt,value
2024-02-08T00:01:31.205Z,84702.25
2024-02-08T00:03:59.025Z,84704.38
2024-02-08T00:06:26.956Z,84705.25
2024-02-08T00:08:55.179Z,84702.66
2024-02-08T00:11:22.947Z,84707.97
2024-02-08T00:13:50.453Z,84700.97
2024-02-08T00:16:18.052Z,84707.69
2024-02-08T00:18:48.366Z,84703.63
2024-02-08T00:21:16.750Z,84702.28
2024-02-08T00:23:44.609Z,84709.41
2024-02-08T00:26:12.400Z,84718.47
2024-02-08T00:28:41.561Z,84707.91
2024-02-08T00:31:09.650Z,84718.03
2024-02-08T00:33:37.542Z,84719.31
2024-02-08T00:36:05.215Z,84726.47
2024-02-08T00:38:32.892Z,84722.50
2024-02-08T00:41:00.838Z,84719.41
2024-02-08T00:43:29.339Z,84715.66
2024-02-08T00:45:57.017Z,84712.75
2024-02-08T00:48:26.518Z,84713.25
2024-02-08T00:50:54.725Z,84720.97
2024-02-08T00:53:23.048Z,84717.97
2024-02-08T00:55:50.764Z,84716.69
2024-02-08T00:58:18.937Z,84715.06
2024-02-08T01:00:49.217Z,84721.47
2024-02-08T01:03:17.367Z,84715.69
2024-02-08T01:05:50.399Z,84724.19
2024-02-08T01:08:17.992Z,84654.53
2024-02-08T01:10:45.761Z,84728.28
2024-02-08T01:13:13.713Z,84723.88
2024-02-08T01:15:41.322Z,84718.00
2024-02-08T01:18:09.139Z,84650.13
2024-02-08T01:20:36.875Z,84719.81
2024-02-08T01:23:06.300Z,84728.38
2024-02-08T01:25:34.232Z,84720.91
2024-02-08T01:28:02.060Z,84724.91
2024-02-08T01:30:29.652Z,84720.50
2024-02-08T01:32:57.403Z,84723.78
2024-02-08T01:35:26.284Z,84717.13
2024-02-08T01:37:55.016Z,84711.66
2024-02-08T01:40:24.144Z,84725.41
2024-02-08T01:42:58.855Z,84729.53
2024-02-08T01:45:32.483Z,84721.81
2024-02-08T01:48:04.644Z,84732.88
2024-02-08T01:50:37.674Z,84712.31
2024-02-08T01:53:08.745Z,84730.66
2024-02-08T01:55:37.984Z,84730.28
2024-02-08T01:58:08.838Z,84737.56
2024-02-08T02:00:40.015Z,84725.94
2024-02-08T02:03:14.691Z,84733.66
2024-02-08T02:05:44.462Z,84735.03
2024-02-08T02:08:13.452Z,84723.28
2024-02-08T02:10:43.079Z,84730.31
2024-02-08T02:13:12.356Z,84728.47
2024-02-08T02:15:40.206Z,84729.94
2024-02-08T02:18:13.597Z,84728.09
2024-02-08T02:20:42.193Z,84665.41
2024-02-08T02:23:11.232Z,84735.25
2024-02-08T02:25:40.368Z,84741.53
2024-02-08T02:28:11.658Z,84735.13
2024-02-08T02:30:39.757Z,84736.94
2024-02-08T02:33:08.518Z,84736.22
2024-02-08T02:35:36.540Z,84736.94
2024-02-08T02:38:04.962Z,84735.25
2024-02-08T02:40:32.646Z,84732.66
2024-02-08T02:43:00.627Z,84738.97
2024-02-08T02:45:30.898Z,84733.06
2024-02-08T02:47:59.778Z,84727.94
2024-02-08T02:50:27.678Z,84731.69
2024-02-08T02:52:55.376Z,84721.09
2024-02-08T02:55:24.524Z,84727.03
2024-02-08T02:57:52.163Z,84728.09
2024-02-08T03:00:22.964Z,84729.78
2024-02-08T03:02:54.129Z,84727.88
2024-02-08T03:05:24.800Z,84734.75
2024-02-08T03:07:53.523Z,84731.47
2024-02-08T03:10:23.537Z,84740.22
2024-02-08T03:12:52.447Z,84739.72
2024-02-08T03:15:20.699Z,84742.03
2024-02-08T03:17:48.781Z,84742.22
2024-02-08T03:20:26.266Z,84748.34
2024-02-08T03:22:54.679Z,84757.28
2024-02-08T03:25:23.272Z,84746.97
2024-02-08T03:27:55.243Z,84731.66
2024-02-08T03:30:32.870Z,84760.38
2024-02-08T03:33:04.007Z,84761.84
2024-02-08T03:35:37.631Z,84755.94
2024-02-08T03:38:05.380Z,84762.97
2024-02-08T03:40:34.768Z,84763.03
2024-02-08T03:43:03.646Z,84769.97
2024-02-08T03:45:31.676Z,84769.97
2024-02-08T03:48:02.658Z,84770.91
2024-02-08T03:50:35.892Z,84767.63
2024-02-08T03:53:14.391Z,84759.22
2024-02-08T03:55:45.671Z,84769.41
2024-02-08T03:58:16.085Z,84766.53
2024-02-08T04:00:48.090Z,84771.03
2024-02-08T04:03:18.197Z,84761.84
2024-02-08T04:05:52.200Z,84768.66
2024-02-08T04:08:28.646Z,84776.44
2024-02-08T04:10:56.693Z,84734.59
2024-02-08T04:13:46.107Z,84780.97
2024-02-08T04:16:32.427Z,84786.84
2024-02-08T04:19:18.844Z,84760.31
2024-02-08T04:22:05.683Z,84792.66
2024-02-08T04:24:52.080Z,84771.91
2024-02-08T04:27:38.377Z,84779.94
2024-02-08T04:30:25.339Z,84791.78
2024-02-08T04:33:12.390Z,84789.97
2024-02-08T04:35:58.606Z,84790.41
2024-02-08T04:38:44.508Z,84784.41
2024-02-08T04:41:30.641Z,84785.44
2024-02-08T04:44:17.557Z,84786.44
2024-02-08T04:47:03.946Z,84787.16
2024-02-08T04:49:50.313Z,84781.03
2024-02-08T04:52:37.059Z,84777.94
2024-02-08T04:55:05.188Z,84787.63
2024-02-08T04:57:37.348Z,84789.44
2024-02-08T05:00:05.420Z,84786.75
2024-02-08T05:02:33.034Z,84788.94
2024-02-08T05:05:00.812Z,84794.09
2024-02-08T05:07:28.767Z,84797.78
2024-02-08T05:09:56.584Z,84770.94
2024-02-08T05:12:24.319Z,84796.25
2024-02-08T05:14:51.832Z,84795.06
2024-02-08T05:17:19.597Z,84783.78
2024-02-08T05:19:47.404Z,84790.72
2024-02-08T05:22:15.409Z,84793.28
2024-02-08T05:24:43.362Z,84795.53
2024-02-08T05:27:12.952Z,84788.03
2024-02-08T05:29:43.111Z,84794.50
2024-02-08T05:32:11.912Z,84792.13
2024-02-08T05:34:41.065Z,84797.50
2024-02-08T05:37:09.218Z,84794.72
2024-02-08T05:39:38.085Z,84798.59
2024-02-08T05:42:07.363Z,84783.41
2024-02-08T05:44:42.092Z,84803.38
2024-02-08T05:47:11.513Z,84797.09
2024-02-08T05:49:51.371Z,84800.44
2024-02-08T05:52:19.674Z,84792.50
2024-02-08T05:54:48.316Z,84784.53
2024-02-08T05:57:16.809Z,84785.63
2024-02-08T05:59:46.899Z,84786.09
2024-02-08T06:02:25.845Z,84780.88
2024-02-08T06:05:11.372Z,84782.53
2024-02-08T06:07:39.992Z,84783.19
2024-02-08T06:10:16.120Z,84788.00
2024-02-08T06:12:53.766Z,84783.84
2024-02-08T06:15:35.012Z,84781.44
2024-02-08T06:18:06.823Z,84774.84
2024-02-08T06:20:37.878Z,84782.34
2024-02-08T06:23:19.581Z,84777.75
2024-02-08T06:26:11.011Z,84776.31
2024-02-08T06:28:48.843Z,84787.34
2024-02-08T06:31:20.959Z,84782.84
2024-02-08T06:34:08.292Z,84779.63
2024-02-08T06:36:42.179Z,84776.94
2024-02-08T06:39:25.259Z,84776.13
2024-02-08T06:41:54.794Z,84764.38
2024-02-08T06:44:38.887Z,84774.84
2024-02-08T06:47:25.946Z,84770.50
2024-02-08T06:50:13.810Z,84778.25
2024-02-08T06:52:59.612Z,84773.56
2024-02-08T06:55:45.506Z,84780.28
2024-02-08T06:58:31.848Z,84775.94
2024-02-08T07:01:18.233Z,84772.09
2024-02-08T07:04:04.652Z,84764.03
2024-02-08T07:06:52.332Z,84757.13
2024-02-08T07:09:38.507Z,84773.97
2024-02-08T07:12:25.429Z,84776.41
2024-02-08T07:15:11.841Z,84781.72
2024-02-08T07:17:58.444Z,84785.91
2024-02-08T07:20:44.976Z,84782.13
2024-02-08T07:23:31.274Z,84777.97
2024-02-08T07:26:17.206Z,84783.06
2024-02-08T07:29:03.548Z,84779.41
2024-02-08T07:31:50.085Z,84773.13
2024-02-08T07:34:36.258Z,84766.44
2024-02-08T07:37:19.728Z,84771.91
2024-02-08T07:40:03.026Z,84761.09
2024-02-08T07:42:43.541Z,84773.75
2024-02-08T07:45:16.234Z,84775.22
2024-02-08T07:47:59.297Z,84783.06
2024-02-08T07:50:37.400Z,84773.97
2024-02-08T07:53:21.448Z,84759.50
2024-02-08T07:56:22.375Z,84771.00
2024-02-08T07:58:54.584Z,84768.28
2024-02-08T08:01:22.611Z,84772.81
2024-02-08T08:03:57.697Z,84765.34
2024-02-08T08:06:25.734Z,84768.44
2024-02-08T08:08:59.765Z,84772.94
2024-02-08T08:11:27.394Z,84769.28
2024-02-08T08:13:58.154Z,84767.97
2024-02-08T08:16:32.613Z,84764.34
2024-02-08T08:19:11.694Z,84766.75
2024-02-08T08:22:14.642Z,84766.34
2024-02-08T08:25:02.298Z,84757.94
2024-02-08T08:27:34.425Z,84759.69
2024-02-08T08:30:04.953Z,84756.53
2024-02-08T08:32:33.964Z,84750.81
2024-02-08T08:35:25.593Z,84752.19
2024-02-08T08:38:12.178Z,84754.81
2024-02-08T08:40:41.451Z,84747.66
2024-02-08T08:43:21.690Z,84721.09
2024-02-08T08:45:55.280Z,84740.81
2024-02-08T08:48:26.431Z,84737.44
2024-02-08T08:50:57.038Z,84740.28
2024-02-08T08:53:29.063Z,84727.44
2024-02-08T08:55:59.530Z,84729.75
2024-02-08T08:58:40.705Z,84706.44
2024-02-08T09:01:17.686Z,84717.22
2024-02-08T09:04:08.745Z,84713.66
2024-02-08T09:06:41.726Z,84704.25
2024-02-08T09:09:28.447Z,84709.06
2024-02-08T09:12:02.382Z,84709.06
2024-02-08T09:14:32.433Z,84714.88
2024-02-08T09:17:23.510Z,84703.97
2024-02-08T09:19:49.675Z,84703.13
2024-02-08T09:22:19.758Z,84704.44
2024-02-08T09:24:47.820Z,84702.56
2024-02-08T09:27:20.810Z,84696.56
2024-02-08T09:30:10.291Z,84694.69
2024-02-08T09:32:48.124Z,84641.00
2024-02-08T09:35:18.077Z,84689.41
2024-02-08T09:37:49.918Z,84695.25
2024-02-08T09:40:23.985Z,84698.63
2024-02-08T09:42:58.909Z,84693.34
2024-02-08T09:45:34.657Z,84682.25
2024-02-08T09:48:08.351Z,84691.31
2024-02-08T09:50:51.624Z,84685.75
2024-02-08T09:53:33.438Z,84683.72
2024-02-08T09:56:17.091Z,84681.03
2024-02-08T09:59:05.306Z,84680.41
2024-02-08T10:01:46.521Z,84680.72
2024-02-08T10:04:21.415Z,84675.47
2024-02-08T10:06:57.404Z,84662.34
2024-02-08T10:09:42.417Z,84669.31
2024-02-08T10:12:21.947Z,84673.72
2024-02-08T10:14:57.910Z,84669.66
2024-02-08T10:17:43.098Z,84668.63
2024-02-08T10:20:23.698Z,84679.31
2024-02-08T10:23:10.652Z,84660.66
2024-02-08T10:25:57.237Z,84665.06
2024-02-08T10:28:26.234Z,84664.47
2024-02-08T10:31:07.872Z,84659.94
2024-02-08T10:33:39.854Z,84640.25
2024-02-08T10:36:09.740Z,84651.94
2024-02-08T10:38:56.552Z,84656.31
2024-02-08T10:41:59.492Z,84659.09
2024-02-08T10:44:36.213Z,84660.09
2024-02-08T10:47:11.635Z,84655.41
2024-02-08T10:49:53.380Z,84655.00
2024-02-08T10:52:23.115Z,84649.44
2024-02-08T10:54:57.337Z,84654.84
2024-02-08T10:57:49.353Z,84643.19
2024-02-08T11:00:38.744Z,84650.31
2024-02-08T11:03:27.796Z,84645.22
2024-02-08T11:06:02.833Z,84654.41
2024-02-08T11:08:35.640Z,84659.22
2024-02-08T11:11:13.901Z,84649.75
2024-02-08T11:13:47.129Z,84633.72
2024-02-08T11:16:37.498Z,84643.94
2024-02-08T11:19:11.106Z,84644.66
2024-02-08T11:21:46.023Z,84639.41
2024-02-08T11:24:31.016Z,84638.22
2024-02-08T11:27:04.351Z,84615.47
2024-02-08T11:29:49.187Z,84638.22
2024-02-08T11:32:20.429Z,84632.69
2024-02-08T11:34:48.923Z,84633.25
2024-02-08T11:37:20.839Z,84632.38
2024-02-08T11:40:03.315Z,84628.00
2024-02-08T11:42:38.738Z,84615.16
2024-02-08T11:45:11.000Z,84616.19
2024-02-08T11:47:43.616Z,84630.63
2024-02-08T11:50:22.508Z,84630.03
2024-02-08T11:52:59.834Z,84637.31
2024-02-08T11:55:30.464Z,84636.72
2024-02-08T11:57:59.155Z,84632.78
2024-02-08T12:00:27.858Z,84634.97
2024-02-08T12:03:00.201Z,84636.84
2024-02-08T12:05:29.934Z,84625.91
2024-02-08T12:08:11.799Z,84627.28
2024-02-08T12:10:43.853Z,84631.44
2024-02-08T12:13:15.661Z,84620.53
2024-02-08T12:15:58.101Z,84630.31
2024-02-08T12:18:30.774Z,84629.41
2024-02-08T12:21:03.601Z,84628.50
2024-02-08T12:23:36.834Z,84613.53
2024-02-08T12:26:08.578Z,84620.81
2024-02-08T12:28:43.648Z,84620.00
2024-02-08T12:31:19.127Z,84618.66
2024-02-08T12:33:54.097Z,84628.72
2024-02-08T12:36:24.901Z,84623.16
2024-02-08T12:38:57.750Z,84630.84
2024-02-08T12:41:25.771Z,84616.22
2024-02-08T12:43:54.188Z,84628.03
2024-02-08T12:46:22.672Z,84610.56
2024-02-08T12:48:51.464Z,84627.47
2024-02-08T12:51:20.848Z,84632.28
2024-02-08T12:53:50.977Z,84626.47
2024-02-08T12:56:20.556Z,84636.81
2024-02-08T12:58:48.519Z,84622.44
2024-02-08T13:01:20.310Z,84625.25
2024-02-08T13:03:50.927Z,84624.13
2024-02-08T13:06:18.843Z,84612.28
2024-02-08T13:08:47.235Z,84625.25
2024-02-08T13:11:24.007Z,84618.72
2024-02-08T13:13:51.879Z,84626.84
2024-02-08T13:16:21.818Z,84617.97
2024-02-08T13:19:01.596Z,84597.28
2024-02-08T13:21:30.085Z,84620.88
2024-02-08T13:23:58.290Z,84613.59
2024-02-08T13:26:33.168Z,84606.75
2024-02-08T13:29:05.564Z,84619.00
2024-02-08T13:31:34.141Z,84625.16
2024-02-08T13:34:03.215Z,84622.97
2024-02-08T13:36:31.176Z,84623.34
2024-02-08T13:38:58.719Z,84622.03
2024-02-08T13:41:26.357Z,84626.53
2024-02-08T13:43:54.396Z,84612.13
2024-02-08T13:46:23.595Z,84623.88
2024-02-08T13:48:51.266Z,84627.50
2024-02-08T13:51:18.726Z,84615.84
2024-02-08T13:53:46.966Z,84619.00
2024-02-08T13:56:15.282Z,84616.84
2024-02-08T13:58:43.212Z,84614.94
2024-02-08T14:01:13.266Z,84615.06
2024-02-08T14:03:41.599Z,84611.00
2024-02-08T14:06:11.377Z,84608.78
2024-02-08T14:08:44.616Z,84602.84
2024-02-08T14:11:18.058Z,84607.94
2024-02-08T14:13:46.175Z,84605.91
2024-02-08T14:16:18.494Z,84603.16
2024-02-08T14:18:56.101Z,84595.00
2024-02-08T14:21:27.778Z,84605.00
2024-02-08T14:24:02.914Z,84597.84
2024-02-08T14:26:39.184Z,84599.00
2024-02-08T14:29:09.024Z,84599.13
2024-02-08T14:31:40.121Z,84596.34
2024-02-08T14:34:11.198Z,84599.69
2024-02-08T14:36:49.608Z,84600.66
2024-02-08T14:39:30.735Z,84604.25
2024-02-08T14:42:01.298Z,84610.22
2024-02-08T14:44:43.545Z,84590.69
2024-02-08T14:47:27.182Z,84596.81
2024-02-08T14:50:01.429Z,84599.69
2024-02-08T14:52:37.820Z,84598.22
2024-02-08T14:55:22.294Z,84606.38
2024-02-08T14:57:54.541Z,84610.56
2024-02-08T15:00:32.387Z,84609.53
2024-02-08T15:03:10.762Z,84615.34
2024-02-08T15:05:49.627Z,84612.72
2024-02-08T15:08:24.448Z,84604.81
2024-02-08T15:11:10.861Z,84608.47
2024-02-08T15:13:48.179Z,84619.22
2024-02-08T15:16:24.088Z,84621.38
2024-02-08T15:18:55.638Z,84628.69
2024-02-08T15:21:27.364Z,84631.34
2024-02-08T15:24:13.593Z,84619.97
2024-02-08T15:27:03.389Z,84637.91
2024-02-08T15:30:00.005Z,84635.03
2024-02-08T15:32:42.100Z,84631.25
2024-02-08T15:35:24.334Z,84636.44
2024-02-08T15:38:12.114Z,84633.06
2024-02-08T15:40:45.238Z,84631.00
2024-02-08T15:43:16.844Z,84636.66
2024-02-08T15:45:45.257Z,84613.16
2024-02-08T15:48:15.778Z,84624.19
2024-02-08T15:50:44.677Z,84629.69
2024-02-08T15:53:21.556Z,84638.00
2024-02-08T15:55:51.237Z,84637.56
2024-02-08T15:58:27.888Z,84640.00
2024-02-08T16:01:12.268Z,84631.53
2024-02-08T16:04:01.982Z,84641.72
2024-02-08T16:06:52.520Z,84639.50
2024-02-08T16:09:28.017Z,84645.59
2024-02-08T16:12:16.842Z,84631.50
2024-02-08T16:14:45.439Z,84616.25
2024-02-08T16:17:31.937Z,84630.75
2024-02-08T16:20:07.826Z,84640.81
2024-02-08T16:22:49.780Z,84636.91
2024-02-08T16:25:21.132Z,84638.19
2024-02-08T16:27:50.045Z,84636.66
2024-02-08T16:30:30.034Z,84626.63
2024-02-08T16:32:58.111Z,84619.38
2024-02-08T16:35:42.528Z,84636.06
2024-02-08T16:38:11.368Z,84628.63
2024-02-08T16:40:53.397Z,84622.19
2024-02-08T16:43:21.864Z,84633.56
2024-02-08T16:45:51.610Z,84631.66
2024-02-08T16:48:25.358Z,84631.38
2024-02-08T16:50:58.765Z,84630.75
2024-02-08T16:53:35.249Z,84629.72
2024-02-08T16:56:08.545Z,84629.72
2024-02-08T16:58:40.101Z,84633.25
2024-02-08T17:01:20.611Z,84623.94
2024-02-08T17:04:24.294Z,84620.84
2024-02-08T17:07:04.857Z,84628.94
2024-02-08T17:09:45.094Z,84619.91
2024-02-08T17:12:21.521Z,84606.47
2024-02-08T17:14:51.220Z,84612.31
2024-02-08T17:17:36.969Z,84619.25
2024-02-08T17:20:24.300Z,84611.31
2024-02-08T17:23:06.581Z,84607.50
2024-02-08T17:25:43.820Z,84612.72
2024-02-08T17:28:22.969Z,84586.63
2024-02-08T17:31:06.459Z,84602.25
2024-02-08T17:33:42.242Z,84573.16
2024-02-08T17:36:15.129Z,84587.75
2024-02-08T17:38:44.323Z,84605.22
2024-02-08T17:41:21.119Z,84600.44
2024-02-08T17:43:57.154Z,84590.19
2024-02-08T17:46:28.137Z,84601.31
2024-02-08T17:48:56.649Z,84600.50
2024-02-08T17:51:33.192Z,84597.56
2024-02-08T17:54:08.519Z,84577.53
2024-02-08T17:56:43.553Z,84599.25
2024-02-08T17:59:17.859Z,84593.84
2024-02-08T18:01:57.640Z,84595.09
2024-02-08T18:04:27.111Z,84606.47
2024-02-08T18:07:12.318Z,84598.53
2024-02-08T18:09:55.538Z,84596.03
2024-02-08T18:12:36.165Z,84604.72
2024-02-08T18:15:14.131Z,84605.66
2024-02-08T18:17:46.440Z,84604.72
2024-02-08T18:20:19.082Z,84600.03
2024-02-08T18:22:50.518Z,84592.19
2024-02-08T18:25:32.274Z,84565.16
2024-02-08T18:28:01.871Z,84604.22
2024-02-08T18:30:31.269Z,84608.06
2024-02-08T18:33:10.402Z,84610.47
2024-02-08T18:35:38.856Z,84589.56
2024-02-08T18:38:09.963Z,84605.97
2024-02-08T18:40:40.169Z,84588.28
2024-02-08T18:43:15.119Z,84602.63
2024-02-08T18:45:50.593Z,84606.75
2024-02-08T18:48:22.134Z,84608.44
2024-02-08T18:50:59.455Z,84603.09
2024-02-08T18:53:26.939Z,84600.28
2024-02-08T18:56:01.441Z,84604.75
2024-02-08T18:58:29.520Z,84594.75
2024-02-08T19:00:57.418Z,84594.41
2024-02-08T19:03:30.444Z,84597.03
2024-02-08T19:06:01.569Z,84602.25
2024-02-08T19:08:37.803Z,84599.97
2024-02-08T19:11:08.020Z,84605.59
2024-02-08T19:13:38.587Z,84609.25
2024-02-08T19:16:17.081Z,84610.09
2024-02-08T19:18:48.655Z,84609.03
2024-02-08T19:21:29.748Z,84612.56
2024-02-08T19:24:05.816Z,84603.91
2024-02-08T19:26:34.241Z,84608.09
2024-02-08T19:29:06.597Z,84605.59
2024-02-08T19:31:38.745Z,84578.09
2024-02-08T19:34:10.066Z,84605.19
2024-02-08T19:36:42.242Z,84605.88
2024-02-08T19:39:28.288Z,84601.19
2024-02-08T19:41:57.166Z,84602.13
2024-02-08T19:44:27.119Z,84601.06
2024-02-08T19:47:08.097Z,84608.47
2024-02-08T19:49:40.933Z,84596.69
2024-02-08T19:52:16.911Z,84609.09
2024-02-08T19:54:51.167Z,84602.41
2024-02-08T19:57:22.884Z,84606.06
2024-02-08T19:59:50.697Z,84601.97
2024-02-08T20:02:35.992Z,84603.44
2024-02-08T20:05:06.175Z,84595.28
2024-02-08T20:07:41.102Z,84593.97
2024-02-08T20:10:16.129Z,84595.19
2024-02-08T20:12:50.444Z,84590.66
2024-02-08T20:15:18.732Z,84587.09
2024-02-08T20:17:51.675Z,84588.31
2024-02-08T20:20:21.299Z,84584.38
2024-02-08T20:22:53.741Z,84578.91
2024-02-08T20:25:35.134Z,84576.16
2024-02-08T20:28:07.938Z,84569.81
2024-02-08T20:30:40.255Z,84578.78
2024-02-08T20:33:14.285Z,84572.91
2024-02-08T20:35:43.901Z,84570.00
2024-02-08T20:38:16.476Z,84569.44
2024-02-08T20:40:45.661Z,84555.53
2024-02-08T20:43:19.376Z,84576.44
2024-02-08T20:45:50.908Z,84568.94
2024-02-08T20:48:20.811Z,84575.63
2024-02-08T20:50:52.293Z,84570.50
2024-02-08T20:53:20.441Z,84560.34
2024-02-08T20:55:52.830Z,84569.13
2024-02-08T20:58:21.013Z,84570.91
2024-02-08T21:00:53.628Z,84562.69
2024-02-08T21:03:28.214Z,84565.84
2024-02-08T21:05:57.023Z,84570.31
2024-02-08T21:08:26.583Z,84568.78
2024-02-08T21:10:58.442Z,84556.03
2024-02-08T21:13:26.978Z,84580.91
2024-02-08T21:15:56.320Z,84572.56
2024-02-08T21:18:24.321Z,84574.66
2024-02-08T21:20:52.754Z,84575.41
2024-02-08T21:23:20.689Z,84577.22
2024-02-08T21:25:51.866Z,84574.75
2024-02-08T21:28:19.929Z,84574.88
2024-02-08T21:30:48.136Z,84573.09
2024-02-08T21:33:16.145Z,84578.41
2024-02-08T21:35:44.929Z,84576.00
2024-02-08T21:38:12.609Z,84572.28
2024-02-08T21:40:41.908Z,84559.69
2024-02-08T21:43:15.992Z,84562.09
2024-02-08T21:45:47.939Z,84569.38
2024-02-08T21:48:16.524Z,84563.97
2024-02-08T21:50:50.418Z,84552.31
2024-02-08T21:53:19.238Z,84555.22
2024-02-08T21:55:46.918Z,84548.44
2024-02-08T21:58:16.937Z,84518.50
2024-02-08T22:00:44.654Z,84539.88
2024-02-08T22:03:16.030Z,84542.25
2024-02-08T22:05:45.679Z,84521.56
2024-02-08T22:08:16.625Z,84537.53
2024-02-08T22:10:44.462Z,84536.03
2024-02-08T22:13:12.668Z,84533.63
2024-02-08T22:15:40.932Z,84539.00
2024-02-08T22:18:09.680Z,84530.75
2024-02-08T22:20:43.405Z,84536.94
2024-02-08T22:23:11.515Z,84529.84
2024-02-08T22:25:39.526Z,84519.09
2024-02-08T22:28:10.950Z,84508.47
2024-02-08T22:30:39.077Z,84506.50
2024-02-08T22:33:08.337Z,84509.84
2024-02-08T22:35:36.801Z,84506.28
2024-02-08T22:38:07.733Z,84510.19
2024-02-08T22:40:37.622Z,84505.03
2024-02-08T22:43:06.860Z,84511.28
2024-02-08T22:45:35.092Z,84525.13
2024-02-08T22:48:04.902Z,84522.22
2024-02-08T22:50:34.534Z,84520.94
2024-02-08T22:53:03.375Z,84520.94
2024-02-08T22:55:31.326Z,84520.22
2024-02-08T22:58:02.129Z,84527.44
2024-02-08T23:00:30.739Z,84516.59
2024-02-08T23:03:08.919Z,84522.84
2024-02-08T23:05:45.840Z,84514.88
2024-02-08T23:08:17.335Z,84516.25
2024-02-08T23:10:45.458Z,84519.28
2024-02-08T23:13:14.926Z,84498.78
2024-02-08T23:15:47.757Z,84524.63
2024-02-08T23:18:20.672Z,84526.81
2024-02-08T23:20:52.098Z,84516.97
2024-02-08T23:23:21.484Z,84513.97
2024-02-08T23:25:50.126Z,84521.78
2024-02-08T23:28:21.817Z,84527.31
2024-02-08T23:30:49.839Z,84530.09
2024-02-08T23:33:19.796Z,84530.66
2024-02-08T23:35:47.882Z,84531.94
2024-02-08T23:38:20.485Z,84530.09
2024-02-08T23:40:49.709Z,84536.75
2024-02-08T23:43:18.136Z,84527.00
2024-02-08T23:45:47.503Z,84522.88
2024-02-08T23:48:15.588Z,84519.28
2024-02-08T23:50:44.166Z,84518.44
2024-02-08T23:53:12.184Z,84520.31
2024-02-08T23:55:40.182Z,84530.50
2024-02-08T23:58:12.668Z,84515.06
